sensor_id;sensor_type;location;lat;lon;timestamp;temperature;humidity
41953;DHT22;47381;28.206;112.926;2022-07-29T00:01:37;33.80;56.10
41953;DHT22;47381;28.206;112.926;2022-07-29T00:04:04;33.80;56.10
41953;DHT22;47381;28.206;112.926;2022-07-29T00:06:31;33.80;56.10
41953;DHT22;47381;28.206;112.926;2022-07-29T00:08:58;33.80;56.10
41953;DHT22;47381;28.206;112.926;2022-07-29T00:11:25;33.80;56.00
41953;DHT22;47381;28.206;112.926;2022-07-29T00:13:52;33.80;55.90
41953;DHT22;47381;28.206;112.926;2022-07-29T00:16:19;33.80;55.90
41953;DHT22;47381;28.206;112.926;2022-07-29T00:18:46;33.80;55.80
41953;DHT22;47381;28.206;112.926;2022-07-29T00:21:14;33.90;55.60
41953;DHT22;47381;28.206;112.926;2022-07-29T00:23:41;33.80;55.50
41953;DHT22;47381;28.206;112.926;2022-07-29T00:26:08;33.80;55.50
41953;DHT22;47381;28.206;112.926;2022-07-29T00:28:35;33.90;55.50
41953;DHT22;47381;28.206;112.926;2022-07-29T00:31:02;33.90;55.40
41953;DHT22;47381;28.206;112.926;2022-07-29T00:33:29;33.90;55.40
41953;DHT22;47381;28.206;112.926;2022-07-29T00:35:57;33.90;55.40
41953;DHT22;47381;28.206;112.926;2022-07-29T00:38:24;33.90;55.40
41953;DHT22;47381;28.206;112.926;2022-07-29T00:40:51;33.90;55.30
41953;DHT22;47381;28.206;112.926;2022-07-29T00:43:18;34.00;55.30
41953;DHT22;47381;28.206;112.926;2022-07-29T00:45:45;34.00;55.20
41953;DHT22;47381;28.206;112.926;2022-07-29T00:48:13;34.00;55.20
41953;DHT22;47381;28.206;112.926;2022-07-29T00:50:40;33.90;55.10
41953;DHT22;47381;28.206;112.926;2022-07-29T00:53:27;34.00;55.10
41953;DHT22;47381;28.206;112.926;2022-07-29T00:55:54;34.00;55.10
41953;DHT22;47381;28.206;112.926;2022-07-29T00:58:22;34.00;55.10
41953;DHT22;47381;28.206;112.926;2022-07-29T01:00:50;34.00;55.00
41953;DHT22;47381;28.206;112.926;2022-07-29T01:03:17;34.00;54.90
41953;DHT22;47381;28.206;112.926;2022-07-29T01:05:46;34.00;54.90
41953;DHT22;47381;28.206;112.926;2022-07-29T01:08:15;34.00;54.80
41953;DHT22;47381;28.206;112.926;2022-07-29T01:10:44;34.00;54.80
41953;DHT22;47381;28.206;112.926;2022-07-29T01:13:14;34.10;54.70
41953;DHT22;47381;28.206;112.926;2022-07-29T01:15:46;34.10;54.70
41953;DHT22;47381;28.206;112.926;2022-07-29T01:18:28;34.10;54.70
41953;DHT22;47381;28.206;112.926;2022-07-29T01:21:19;34.10;54.60
41953;DHT22;47381;28.206;112.926;2022-07-29T01:26:43;34.20;54.60
41953;DHT22;47381;28.206;112.926;2022-07-29T01:29:32;34.20;54.70
41953;DHT22;47381;28.206;112.926;2022-07-29T01:35:07;34.10;54.60
41953;DHT22;47381;28.206;112.926;2022-07-29T01:37:57;34.20;54.50
41953;DHT22;47381;28.206;112.926;2022-07-29T01:40:35;34.20;54.40
41953;DHT22;47381;28.206;112.926;2022-07-29T01:43:10;34.20;54.30
41953;DHT22;47381;28.206;112.926;2022-07-29T01:45:41;34.20;54.30
41953;DHT22;47381;28.206;112.926;2022-07-29T01:48:15;34.20;54.20
41953;DHT22;47381;28.206;112.926;2022-07-29T01:50:55;34.30;54.20
41953;DHT22;47381;28.206;112.926;2022-07-29T01:53:38;34.30;54.10
41953;DHT22;47381;28.206;112.926;2022-07-29T01:56:08;34.30;54.00
41953;DHT22;47381;28.206;112.926;2022-07-29T01:58:39;34.30;54.00
41953;DHT22;47381;28.206;112.926;2022-07-29T02:01:10;34.30;54.00
41953;DHT22;47381;28.206;112.926;2022-07-29T02:03:40;34.30;54.00
41953;DHT22;47381;28.206;112.926;2022-07-29T02:06:11;34.30;54.00
41953;DHT22;47381;28.206;112.926;2022-07-29T02:08:39;34.40;54.00
41953;DHT22;47381;28.206;112.926;2022-07-29T02:11:08;34.40;53.90
41953;DHT22;47381;28.206;112.926;2022-07-29T02:13:36;34.40;53.90
41953;DHT22;47381;28.206;112.926;2022-07-29T02:16:06;34.40;53.90
41953;DHT22;47381;28.206;112.926;2022-07-29T02:18:37;34.40;53.80
41953;DHT22;47381;28.206;112.926;2022-07-29T02:21:04;34.40;53.80
41953;DHT22;47381;28.206;112.926;2022-07-29T02:23:33;34.40;53.70
41953;DHT22;47381;28.206;112.926;2022-07-29T02:26:03;34.50;53.80
41953;DHT22;47381;28.206;112.926;2022-07-29T02:28:31;34.50;53.70
41953;DHT22;47381;28.206;112.926;2022-07-29T02:31:02;34.50;53.70
41953;DHT22;47381;28.206;112.926;2022-07-29T02:33:36;34.50;53.70
41953;DHT22;47381;28.206;112.926;2022-07-29T02:36:04;34.50;53.60
41953;DHT22;47381;28.206;112.926;2022-07-29T02:38:32;34.50;53.50
41953;DHT22;47381;28.206;112.926;2022-07-29T02:41:24;34.60;53.50
41953;DHT22;47381;28.206;112.926;2022-07-29T02:43:58;34.60;53.40
41953;DHT22;47381;28.206;112.926;2022-07-29T02:46:31;34.60;53.40
41953;DHT22;47381;28.206;112.926;2022-07-29T02:49:14;34.60;53.40
41953;DHT22;47381;28.206;112.926;2022-07-29T02:52:06;34.60;53.30
41953;DHT22;47381;28.206;112.926;2022-07-29T02:57:41;34.70;53.30
41953;DHT22;47381;28.206;112.926;2022-07-29T03:00:10;34.70;53.40
41953;DHT22;47381;28.206;112.926;2022-07-29T03:02:42;34.70;53.40
41953;DHT22;47381;28.206;112.926;2022-07-29T03:05:16;34.70;53.40
41953;DHT22;47381;28.206;112.926;2022-07-29T03:07:45;34.70;53.40
41953;DHT22;47381;28.206;112.926;2022-07-29T03:10:13;34.70;53.50
41953;DHT22;47381;28.206;112.926;2022-07-29T03:13:01;34.70;53.40
41953;DHT22;47381;28.206;112.926;2022-07-29T03:15:28;34.70;53.30
41953;DHT22;47381;28.206;112.926;2022-07-29T03:17:56;34.70;53.40
41953;DHT22;47381;28.206;112.926;2022-07-29T03:20:24;34.70;53.30
41953;DHT22;47381;28.206;112.926;2022-07-29T03:22:51;34.70;53.20
41953;DHT22;47381;28.206;112.926;2022-07-29T03:25:19;34.70;53.20
41953;DHT22;47381;28.206;112.926;2022-07-29T03:27:48;34.70;53.40
41953;DHT22;47381;28.206;112.926;2022-07-29T03:30:15;34.80;53.40
41953;DHT22;47381;28.206;112.926;2022-07-29T03:32:42;34.80;53.60
41953;DHT22;47381;28.206;112.926;2022-07-29T03:35:09;34.80;53.60
41953;DHT22;47381;28.206;112.926;2022-07-29T03:37:37;34.80;53.50
41953;DHT22;47381;28.206;112.926;2022-07-29T03:40:08;34.90;53.50
41953;DHT22;47381;28.206;112.926;2022-07-29T03:42:57;34.90;53.40
41953;DHT22;47381;28.206;112.926;2022-07-29T03:45:26;34.90;53.50
41953;DHT22;47381;28.206;112.926;2022-07-29T03:47:59;34.80;53.60
41953;DHT22;47381;28.206;112.926;2022-07-29T03:50:29;34.80;53.60
41953;DHT22;47381;28.206;112.926;2022-07-29T03:52:58;34.90;53.50
41953;DHT22;47381;28.206;112.926;2022-07-29T03:55:26;34.90;53.30
41953;DHT22;47381;28.206;112.926;2022-07-29T03:57:57;35.00;53.10
41953;DHT22;47381;28.206;112.926;2022-07-29T04:00:26;35.00;53.10
41953;DHT22;47381;28.206;112.926;2022-07-29T04:02:54;35.20;53.00
41953;DHT22;47381;28.206;112.926;2022-07-29T04:05:21;35.10;53.00
41953;DHT22;47381;28.206;112.926;2022-07-29T04:07:50;35.10;53.10
41953;DHT22;47381;28.206;112.926;2022-07-29T04:10:38;35.10;53.30
41953;DHT22;47381;28.206;112.926;2022-07-29T04:13:08;35.10;53.40
41953;DHT22;47381;28.206;112.926;2022-07-29T04:15:35;35.10;53.60
41953;DHT22;47381;28.206;112.926;2022-07-29T04:18:02;35.10;53.80
41953;DHT22;47381;28.206;112.926;2022-07-29T04:20:29;35.20;53.90
41953;DHT22;47381;28.206;112.926;2022-07-29T04:23:02;35.20;53.90
41953;DHT22;47381;28.206;112.926;2022-07-29T04:25:29;35.30;53.80
41953;DHT22;47381;28.206;112.926;2022-07-29T04:28:16;35.30;53.70
41953;DHT22;47381;28.206;112.926;2022-07-29T04:30:45;35.30;53.60
41953;DHT22;47381;28.206;112.926;2022-07-29T04:33:13;35.30;53.90
41953;DHT22;47381;28.206;112.926;2022-07-29T04:35:44;35.30;54.10
41953;DHT22;47381;28.206;112.926;2022-07-29T04:38:11;35.30;54.20
41953;DHT22;47381;28.206;112.926;2022-07-29T04:40:39;35.30;54.20
41953;DHT22;47381;28.206;112.926;2022-07-29T04:43:06;35.20;54.30
41953;DHT22;47381;28.206;112.926;2022-07-29T04:45:34;35.20;54.50
41953;DHT22;47381;28.206;112.926;2022-07-29T04:48:04;35.20;54.80
41953;DHT22;47381;28.206;112.926;2022-07-29T04:50:31;35.20;54.90
41953;DHT22;47381;28.206;112.926;2022-07-29T04:52:58;35.20;55.10
41953;DHT22;47381;28.206;112.926;2022-07-29T04:55:27;35.20;55.20
41953;DHT22;47381;28.206;112.926;2022-07-29T04:57:54;35.10;54.30
41953;DHT22;47381;28.206;112.926;2022-07-29T05:00:23;35.00;54.00
41953;DHT22;47381;28.206;112.926;2022-07-29T05:02:50;35.00;53.80
41953;DHT22;47381;28.206;112.926;2022-07-29T05:05:18;34.90;53.70
41953;DHT22;47381;28.206;112.926;2022-07-29T05:08:06;34.90;53.70
41953;DHT22;47381;28.206;112.926;2022-07-29T05:10:34;34.80;53.30
41953;DHT22;47381;28.206;112.926;2022-07-29T05:13:05;34.80;53.30
41953;DHT22;47381;28.206;112.926;2022-07-29T05:15:33;34.70;53.30
41953;DHT22;47381;28.206;112.926;2022-07-29T05:18:21;34.70;53.30
41953;DHT22;47381;28.206;112.926;2022-07-29T05:20:51;34.70;53.30
41953;DHT22;47381;28.206;112.926;2022-07-29T05:23:18;34.70;53.30
41953;DHT22;47381;28.206;112.926;2022-07-29T05:25:45;34.70;53.30
41953;DHT22;47381;28.206;112.926;2022-07-29T05:28:15;34.70;53.30
41953;DHT22;47381;28.206;112.926;2022-07-29T05:30:42;34.60;53.30
41953;DHT22;47381;28.206;112.926;2022-07-29T05:33:11;34.70;53.40
41953;DHT22;47381;28.206;112.926;2022-07-29T05:35:38;34.60;53.40
41953;DHT22;47381;28.206;112.926;2022-07-29T05:38:09;34.60;53.40
41953;DHT22;47381;28.206;112.926;2022-07-29T05:40:36;34.60;53.40
41953;DHT22;47381;28.206;112.926;2022-07-29T05:43:06;34.60;53.40
41953;DHT22;47381;28.206;112.926;2022-07-29T05:45:33;34.50;53.50
41953;DHT22;47381;28.206;112.926;2022-07-29T05:48:00;34.50;53.40
41953;DHT22;47381;28.206;112.926;2022-07-29T05:50:42;34.50;53.60
41953;DHT22;47381;28.206;112.926;2022-07-29T05:53:10;34.40;53.60
41953;DHT22;47381;28.206;112.926;2022-07-29T05:55:37;34.40;53.60
41953;DHT22;47381;28.206;112.926;2022-07-29T05:58:04;34.40;53.70
41953;DHT22;47381;28.206;112.926;2022-07-29T06:00:31;34.40;53.60
41953;DHT22;47381;28.206;112.926;2022-07-29T06:02:59;34.40;53.70
41953;DHT22;47381;28.206;112.926;2022-07-29T06:05:26;34.30;53.70
41953;DHT22;47381;28.206;112.926;2022-07-29T06:07:53;34.30;53.80
41953;DHT22;47381;28.206;112.926;2022-07-29T06:10:23;34.30;53.90
41953;DHT22;47381;28.206;112.926;2022-07-29T06:12:51;34.30;53.90
41953;DHT22;47381;28.206;112.926;2022-07-29T06:15:19;34.30;53.90
41953;DHT22;47381;28.206;112.926;2022-07-29T06:18:07;34.20;53.90
41953;DHT22;47381;28.206;112.926;2022-07-29T06:20:36;34.20;53.90
41953;DHT22;47381;28.206;112.926;2022-07-29T06:23:03;34.20;53.90
41953;DHT22;47381;28.206;112.926;2022-07-29T06:25:31;34.20;54.00
41953;DHT22;47381;28.206;112.926;2022-07-29T06:28:03;34.20;54.00
41953;DHT22;47381;28.206;112.926;2022-07-29T06:30:31;34.20;54.00
41953;DHT22;47381;28.206;112.926;2022-07-29T06:33:08;34.20;54.00
41953;DHT22;47381;28.206;112.926;2022-07-29T06:35:38;34.20;54.00
41953;DHT22;47381;28.206;112.926;2022-07-29T06:38:05;34.20;54.00
41953;DHT22;47381;28.206;112.926;2022-07-29T06:40:32;34.20;54.10
41953;DHT22;47381;28.206;112.926;2022-07-29T06:43:19;34.20;54.00
41953;DHT22;47381;28.206;112.926;2022-07-29T06:45:49;34.10;54.10
41953;DHT22;47381;28.206;112.926;2022-07-29T06:48:19;34.10;54.20
41953;DHT22;47381;28.206;112.926;2022-07-29T06:50:47;34.10;54.20
41953;DHT22;47381;28.206;112.926;2022-07-29T06:53:14;34.10;54.30
41953;DHT22;47381;28.206;112.926;2022-07-29T06:55:41;34.10;54.20
41953;DHT22;47381;28.206;112.926;2022-07-29T06:58:09;34.10;54.30
41953;DHT22;47381;28.206;112.926;2022-07-29T07:00:43;34.10;54.30
41953;DHT22;47381;28.206;112.926;2022-07-29T07:03:15;34.10;54.30
41953;DHT22;47381;28.206;112.926;2022-07-29T07:05:43;34.10;54.40
41953;DHT22;47381;28.206;112.926;2022-07-29T07:08:11;34.10;54.30
41953;DHT22;47381;28.206;112.926;2022-07-29T07:10:42;34.10;54.30
41953;DHT22;47381;28.206;112.926;2022-07-29T07:13:14;34.10;54.30
41953;DHT22;47381;28.206;112.926;2022-07-29T07:15:44;34.10;54.30
41953;DHT22;47381;28.206;112.926;2022-07-29T07:18:14;34.10;54.30
41953;DHT22;47381;28.206;112.926;2022-07-29T07:20:43;34.10;54.30
41953;DHT22;47381;28.206;112.926;2022-07-29T07:23:14;34.10;54.30
41953;DHT22;47381;28.206;112.926;2022-07-29T07:25:41;34.10;54.30
41953;DHT22;47381;28.206;112.926;2022-07-29T07:28:08;34.10;54.40
41953;DHT22;47381;28.206;112.926;2022-07-29T07:30:37;34.10;54.30
41953;DHT22;47381;28.206;112.926;2022-07-29T07:33:04;34.10;54.30
41953;DHT22;47381;28.206;112.926;2022-07-29T07:35:33;34.10;54.30
41953;DHT22;47381;28.206;112.926;2022-07-29T07:38:03;34.20;54.30
41953;DHT22;47381;28.206;112.926;2022-07-29T07:40:32;34.10;54.30
41953;DHT22;47381;28.206;112.926;2022-07-29T07:42:59;34.20;54.30
41953;DHT22;47381;28.206;112.926;2022-07-29T07:45:32;34.20;54.30
41953;DHT22;47381;28.206;112.926;2022-07-29T07:48:07;34.20;54.20
41953;DHT22;47381;28.206;112.926;2022-07-29T07:50:36;34.20;54.20
41953;DHT22;47381;28.206;112.926;2022-07-29T07:53:05;34.20;54.20
41953;DHT22;47381;28.206;112.926;2022-07-29T07:55:32;34.20;54.20
41953;DHT22;47381;28.206;112.926;2022-07-29T07:58:00;34.20;54.20
41953;DHT22;47381;28.206;112.926;2022-07-29T08:00:28;34.20;54.30
41953;DHT22;47381;28.206;112.926;2022-07-29T08:02:55;34.20;54.20
41953;DHT22;47381;28.206;112.926;2022-07-29T08:05:22;34.30;54.20
41953;DHT22;47381;28.206;112.926;2022-07-29T08:07:52;34.30;54.20
41953;DHT22;47381;28.206;112.926;2022-07-29T08:10:20;34.30;54.10
41953;DHT22;47381;28.206;112.926;2022-07-29T08:13:08;34.30;54.10
41953;DHT22;47381;28.206;112.926;2022-07-29T08:15:39;34.30;54.10
41953;DHT22;47381;28.206;112.926;2022-07-29T08:18:08;34.30;54.00
41953;DHT22;47381;28.206;112.926;2022-07-29T08:20:37;34.40;54.00
41953;DHT22;47381;28.206;112.926;2022-07-29T08:23:07;34.40;53.90
41953;DHT22;47381;28.206;112.926;2022-07-29T08:25:37;34.40;53.90
41953;DHT22;47381;28.206;112.926;2022-07-29T08:28:05;34.40;53.90
41953;DHT22;47381;28.206;112.926;2022-07-29T08:30:33;34.40;53.90
41953;DHT22;47381;28.206;112.926;2022-07-29T08:33:21;34.40;53.90
41953;DHT22;47381;28.206;112.926;2022-07-29T08:35:51;34.50;53.90
41953;DHT22;47381;28.206;112.926;2022-07-29T08:38:47;34.40;53.80
41953;DHT22;47381;28.206;112.926;2022-07-29T08:41:20;34.40;53.90
41953;DHT22;47381;28.206;112.926;2022-07-29T08:44:28;34.40;53.90
41953;DHT22;47381;28.206;112.926;2022-07-29T08:46:58;34.40;53.90
41953;DHT22;47381;28.206;112.926;2022-07-29T08:49:37;34.40;53.90
41953;DHT22;47381;28.206;112.926;2022-07-29T08:52:05;34.50;53.80
41953;DHT22;47381;28.206;112.926;2022-07-29T08:54:49;34.50;53.80
41953;DHT22;47381;28.206;112.926;2022-07-29T08:57:16;34.40;53.80
41953;DHT22;47381;28.206;112.926;2022-07-29T08:59:45;34.40;53.70
41953;DHT22;47381;28.206;112.926;2022-07-29T09:02:47;34.40;53.70
41953;DHT22;47381;28.206;112.926;2022-07-29T09:05:26;34.40;53.70
41953;DHT22;47381;28.206;112.926;2022-07-29T09:07:53;34.40;53.70
41953;DHT22;47381;28.206;112.926;2022-07-29T09:10:21;34.40;53.70
41953;DHT22;47381;28.206;112.926;2022-07-29T09:12:48;34.40;53.70
41953;DHT22;47381;28.206;112.926;2022-07-29T09:15:15;34.40;53.70
41953;DHT22;47381;28.206;112.926;2022-07-29T09:17:48;34.40;53.60
41953;DHT22;47381;28.206;112.926;2022-07-29T09:20:20;34.40;53.60
41953;DHT22;47381;28.206;112.926;2022-07-29T09:22:51;34.40;53.70
41953;DHT22;47381;28.206;112.926;2022-07-29T09:25:38;34.40;53.70
41953;DHT22;47381;28.206;112.926;2022-07-29T09:28:17;34.40;53.60
41953;DHT22;47381;28.206;112.926;2022-07-29T09:30:52;34.40;53.60
41953;DHT22;47381;28.206;112.926;2022-07-29T09:33:20;34.40;53.60
41953;DHT22;47381;28.206;112.926;2022-07-29T09:36:00;34.40;53.70
41953;DHT22;47381;28.206;112.926;2022-07-29T09:38:29;34.40;53.70
41953;DHT22;47381;28.206;112.926;2022-07-29T09:40:57;34.40;53.70
41953;DHT22;47381;28.206;112.926;2022-07-29T09:43:25;34.40;53.70
41953;DHT22;47381;28.206;112.926;2022-07-29T09:45:52;34.40;53.70
41953;DHT22;47381;28.206;112.926;2022-07-29T09:48:22;34.40;53.70
41953;DHT22;47381;28.206;112.926;2022-07-29T09:50:51;34.40;53.60
41953;DHT22;47381;28.206;112.926;2022-07-29T09:53:38;34.30;53.60
41953;DHT22;47381;28.206;112.926;2022-07-29T09:56:06;34.40;53.60
41953;DHT22;47381;28.206;112.926;2022-07-29T09:58:33;34.40;53.60
41953;DHT22;47381;28.206;112.926;2022-07-29T10:01:01;34.30;53.60
41953;DHT22;47381;28.206;112.926;2022-07-29T10:03:29;34.30;53.60
41953;DHT22;47381;28.206;112.926;2022-07-29T10:06:17;34.30;53.60
41953;DHT22;47381;28.206;112.926;2022-07-29T10:08:44;34.30;53.60
41953;DHT22;47381;28.206;112.926;2022-07-29T10:11:18;34.30;53.70
41953;DHT22;47381;28.206;112.926;2022-07-29T10:13:47;34.30;53.70
41953;DHT22;47381;28.206;112.926;2022-07-29T10:16:16;34.30;53.70
41953;DHT22;47381;28.206;112.926;2022-07-29T10:18:44;34.30;53.60
41953;DHT22;47381;28.206;112.926;2022-07-29T10:21:13;34.30;53.60
41953;DHT22;47381;28.206;112.926;2022-07-29T10:23:41;34.20;53.60
41953;DHT22;47381;28.206;112.926;2022-07-29T10:26:10;34.30;53.60
41953;DHT22;47381;28.206;112.926;2022-07-29T10:28:39;34.30;53.60
41953;DHT22;47381;28.206;112.926;2022-07-29T10:31:10;34.30;53.60
41953;DHT22;47381;28.206;112.926;2022-07-29T10:37:08;34.20;53.60
41953;DHT22;47381;28.206;112.926;2022-07-29T10:45:46;34.20;53.70
41953;DHT22;47381;28.206;112.926;2022-07-29T10:48:14;34.20;53.60
41953;DHT22;47381;28.206;112.926;2022-07-29T10:50:55;34.20;53.60
41953;DHT22;47381;28.206;112.926;2022-07-29T10:53:24;34.20;53.60
41953;DHT22;47381;28.206;112.926;2022-07-29T10:55:52;34.20;53.70
41953;DHT22;47381;28.206;112.926;2022-07-29T10:58:21;34.20;53.80
41953;DHT22;47381;28.206;112.926;2022-07-29T11:00:53;34.20;53.80
41953;DHT22;47381;28.206;112.926;2022-07-29T11:03:45;34.20;53.90
41953;DHT22;47381;28.206;112.926;2022-07-29T11:06:13;34.10;53.90
41953;DHT22;47381;28.206;112.926;2022-07-29T11:08:41;34.10;53.90
41953;DHT22;47381;28.206;112.926;2022-07-29T11:13:53;34.10;54.00
41953;DHT22;47381;28.206;112.926;2022-07-29T11:16:23;34.10;53.90
41953;DHT22;47381;28.206;112.926;2022-07-29T11:21:43;34.10;54.10
41953;DHT22;47381;28.206;112.926;2022-07-29T11:28:10;34.00;54.20
41953;DHT22;47381;28.206;112.926;2022-07-29T11:30:53;33.90;54.20
41953;DHT22;47381;28.206;112.926;2022-07-29T11:33:33;33.90;54.30
41953;DHT22;47381;28.206;112.926;2022-07-29T11:36:14;33.90;54.40
41953;DHT22;47381;28.206;112.926;2022-07-29T11:38:42;33.90;54.40
41953;DHT22;47381;28.206;112.926;2022-07-29T11:41:27;33.90;54.40
41953;DHT22;47381;28.206;112.926;2022-07-29T11:43:59;33.90;54.50
41953;DHT22;47381;28.206;112.926;2022-07-29T11:46:48;33.90;54.50
41953;DHT22;47381;28.206;112.926;2022-07-29T11:49:26;33.80;54.50
41953;DHT22;47381;28.206;112.926;2022-07-29T11:51:57;33.80;54.50
41953;DHT22;47381;28.206;112.926;2022-07-29T11:54:30;33.80;54.60
41953;DHT22;47381;28.206;112.926;2022-07-29T11:56:59;33.80;54.60
41953;DHT22;47381;28.206;112.926;2022-07-29T11:59:47;33.80;54.60
41953;DHT22;47381;28.206;112.926;2022-07-29T12:02:14;33.80;54.60
41953;DHT22;47381;28.206;112.926;2022-07-29T12:04:57;33.70;54.70
41953;DHT22;47381;28.206;112.926;2022-07-29T12:07:33;33.80;54.70
41953;DHT22;47381;28.206;112.926;2022-07-29T12:10:01;33.80;54.70
41953;DHT22;47381;28.206;112.926;2022-07-29T12:12:29;33.70;54.70
41953;DHT22;47381;28.206;112.926;2022-07-29T12:14:56;33.70;54.70
41953;DHT22;47381;28.206;112.926;2022-07-29T12:17:33;33.70;54.70
41953;DHT22;47381;28.206;112.926;2022-07-29T12:20:02;33.70;54.80
41953;DHT22;47381;28.206;112.926;2022-07-29T12:22:38;33.70;54.80
41953;DHT22;47381;28.206;112.926;2022-07-29T12:25:09;33.70;54.80
41953;DHT22;47381;28.206;112.926;2022-07-29T12:27:37;33.70;54.80
41953;DHT22;47381;28.206;112.926;2022-07-29T12:30:12;33.70;54.80
41953;DHT22;47381;28.206;112.926;2022-07-29T12:32:44;33.70;54.90
41953;DHT22;47381;28.206;112.926;2022-07-29T12:35:19;33.70;54.90
41953;DHT22;47381;28.206;112.926;2022-07-29T12:37:48;33.70;54.90
41953;DHT22;47381;28.206;112.926;2022-07-29T12:40:18;33.70;54.90
41953;DHT22;47381;28.206;112.926;2022-07-29T12:43:25;33.70;54.90
41953;DHT22;47381;28.206;112.926;2022-07-29T12:45:55;33.70;54.90
41953;DHT22;47381;28.206;112.926;2022-07-29T12:48:37;33.70;54.80
41953;DHT22;47381;28.206;112.926;2022-07-29T12:51:06;33.70;54.80
41953;DHT22;47381;28.206;112.926;2022-07-29T12:53:34;33.80;54.70
41953;DHT22;47381;28.206;112.926;2022-07-29T12:56:02;33.70;54.70
41953;DHT22;47381;28.206;112.926;2022-07-29T12:58:42;33.70;54.70
41953;DHT22;47381;28.206;112.926;2022-07-29T13:01:15;33.70;54.90
41953;DHT22;47381;28.206;112.926;2022-07-29T13:03:53;33.70;54.90
41953;DHT22;47381;28.206;112.926;2022-07-29T13:11:40;33.70;55.10
41953;DHT22;47381;28.206;112.926;2022-07-29T13:14:11;33.60;55.00
41953;DHT22;47381;28.206;112.926;2022-07-29T13:17:06;33.70;55.00
41953;DHT22;47381;28.206;112.926;2022-07-29T13:19:46;33.60;55.10
41953;DHT22;47381;28.206;112.926;2022-07-29T13:22:17;33.70;55.10
41953;DHT22;47381;28.206;112.926;2022-07-29T13:24:51;33.60;55.10
41953;DHT22;47381;28.206;112.926;2022-07-29T13:27:23;33.60;55.10
41953;DHT22;47381;28.206;112.926;2022-07-29T13:30:11;33.60;55.20
41953;DHT22;47381;28.206;112.926;2022-07-29T13:32:38;33.60;55.20
41953;DHT22;47381;28.206;112.926;2022-07-29T13:35:07;33.60;55.20
41953;DHT22;47381;28.206;112.926;2022-07-29T13:37:36;33.60;55.20
41953;DHT22;47381;28.206;112.926;2022-07-29T13:40:07;33.60;55.30
41953;DHT22;47381;28.206;112.926;2022-07-29T13:42:38;33.60;55.30
41953;DHT22;47381;28.206;112.926;2022-07-29T13:45:06;33.50;55.30
41953;DHT22;47381;28.206;112.926;2022-07-29T13:47:34;33.60;55.40
41953;DHT22;47381;28.206;112.926;2022-07-29T13:50:21;33.50;55.40
41953;DHT22;47381;28.206;112.926;2022-07-29T13:52:48;33.60;55.40
41953;DHT22;47381;28.206;112.926;2022-07-29T13:55:17;33.60;55.40
41953;DHT22;47381;28.206;112.926;2022-07-29T13:57:44;33.50;55.40
41953;DHT22;47381;28.206;112.926;2022-07-29T14:00:15;33.50;55.40
41953;DHT22;47381;28.206;112.926;2022-07-29T14:02:45;33.50;55.60
41953;DHT22;47381;28.206;112.926;2022-07-29T14:05:14;33.50;55.60
41953;DHT22;47381;28.206;112.926;2022-07-29T14:07:45;33.50;55.60
41953;DHT22;47381;28.206;112.926;2022-07-29T14:10:13;33.50;55.50
41953;DHT22;47381;28.206;112.926;2022-07-29T14:15:27;33.50;55.50
41953;DHT22;47381;28.206;112.926;2022-07-29T14:17:58;33.50;55.50
41953;DHT22;47381;28.206;112.926;2022-07-29T14:20:46;33.50;55.50
41953;DHT22;47381;28.206;112.926;2022-07-29T14:23:14;33.50;55.50
41953;DHT22;47381;28.206;112.926;2022-07-29T14:25:41;33.50;55.60
41953;DHT22;47381;28.206;112.926;2022-07-29T14:28:08;33.50;55.50
41953;DHT22;47381;28.206;112.926;2022-07-29T14:30:36;33.50;55.50
41953;DHT22;47381;28.206;112.926;2022-07-29T14:33:03;33.50;55.50
41953;DHT22;47381;28.206;112.926;2022-07-29T14:35:32;33.50;55.60
41953;DHT22;47381;28.206;112.926;2022-07-29T14:37:59;33.50;55.60
41953;DHT22;47381;28.206;112.926;2022-07-29T14:40:31;33.50;55.50
41953;DHT22;47381;28.206;112.926;2022-07-29T14:42:58;33.50;55.50
41953;DHT22;47381;28.206;112.926;2022-07-29T14:45:25;33.50;55.50
41953;DHT22;47381;28.206;112.926;2022-07-29T14:47:55;33.50;55.50
41953;DHT22;47381;28.206;112.926;2022-07-29T14:50:22;33.50;55.60
41953;DHT22;47381;28.206;112.926;2022-07-29T14:53:11;33.50;55.50
41953;DHT22;47381;28.206;112.926;2022-07-29T14:55:42;33.50;55.60
41953;DHT22;47381;28.206;112.926;2022-07-29T14:58:09;33.40;55.60
41953;DHT22;47381;28.206;112.926;2022-07-29T15:00:37;33.40;55.70
41953;DHT22;47381;28.206;112.926;2022-07-29T15:03:05;33.40;55.70
41953;DHT22;47381;28.206;112.926;2022-07-29T15:05:34;33.40;55.60
41953;DHT22;47381;28.206;112.926;2022-07-29T15:08:03;33.40;55.60
41953;DHT22;47381;28.206;112.926;2022-07-29T15:10:30;33.50;55.60
41953;DHT22;47381;28.206;112.926;2022-07-29T15:12:58;33.40;55.60
41953;DHT22;47381;28.206;112.926;2022-07-29T15:15:25;33.40;55.60
41953;DHT22;47381;28.206;112.926;2022-07-29T15:17:59;33.40;55.70
41953;DHT22;47381;28.206;112.926;2022-07-29T15:20:26;33.40;55.70
41953;DHT22;47381;28.206;112.926;2022-07-29T15:22:57;33.40;55.60
41953;DHT22;47381;28.206;112.926;2022-07-29T15:25:26;33.40;55.70
41953;DHT22;47381;28.206;112.926;2022-07-29T15:27:55;33.40;55.70
41953;DHT22;47381;28.206;112.926;2022-07-29T15:30:23;33.40;55.70
41953;DHT22;47381;28.206;112.926;2022-07-29T15:32:50;33.40;55.70
41953;DHT22;47381;28.206;112.926;2022-07-29T15:35:17;33.40;55.70
41953;DHT22;47381;28.206;112.926;2022-07-29T15:37:45;33.40;55.60
41953;DHT22;47381;28.206;112.926;2022-07-29T15:40:15;33.40;55.70
41953;DHT22;47381;28.206;112.926;2022-07-29T15:42:47;33.30;55.70
41953;DHT22;47381;28.206;112.926;2022-07-29T15:45:15;33.30;55.70
41953;DHT22;47381;28.206;112.926;2022-07-29T15:47:42;33.30;55.80
41953;DHT22;47381;28.206;112.926;2022-07-29T15:50:09;33.40;55.70
41953;DHT22;47381;28.206;112.926;2022-07-29T15:52:57;33.30;55.70
41953;DHT22;47381;28.206;112.926;2022-07-29T15:55:24;33.40;55.70
41953;DHT22;47381;28.206;112.926;2022-07-29T15:57:54;33.30;55.70
41953;DHT22;47381;28.206;112.926;2022-07-29T16:00:29;33.40;55.70
41953;DHT22;47381;28.206;112.926;2022-07-29T16:03:02;33.40;55.70
41953;DHT22;47381;28.206;112.926;2022-07-29T16:05:29;33.30;55.80